createdAt,value
2023-03-21T00:01:06.344Z,1
2023-03-21T00:03:06.062Z,1
2023-03-21T00:05:13.533Z,1
2023-03-21T00:07:09.845Z,1
2023-03-21T00:09:06.536Z,1
2023-03-21T00:11:09.794Z,1
2023-03-21T00:13:06.309Z,1
2023-03-21T00:15:06.614Z,1
2023-03-21T00:17:06.204Z,1
2023-03-21T00:19:06.107Z,1
2023-03-21T00:21:38.263Z,1
2023-03-21T00:23:05.924Z,1
2023-03-21T00:25:05.995Z,1
2023-03-21T00:27:30.201Z,1
2023-03-21T00:29:05.938Z,1
2023-03-21T00:31:06.656Z,1
2023-03-21T00:33:21.946Z,1
2023-03-21T00:35:34.683Z,1
2023-03-21T00:37:06.532Z,1
2023-03-21T00:39:06.807Z,1
2023-03-21T00:41:19.151Z,1
2023-03-21T00:43:06.112Z,1
2023-03-21T00:45:06.612Z,1
2023-03-21T00:47:09.920Z,1
2023-03-21T00:49:06.298Z,1
2023-03-21T00:51:06.509Z,1
2023-03-21T00:53:09.655Z,1
2023-03-21T00:55:06.609Z,1
2023-03-21T00:57:06.319Z,1
2023-03-21T00:59:13.225Z,1
2023-03-21T01:01:06.646Z,1
2023-03-21T01:03:14.458Z,1
2023-03-21T01:05:10.172Z,1
2023-03-21T01:07:06.481Z,1
2023-03-21T01:09:06.031Z,1
2023-03-21T01:11:09.847Z,1
2023-03-21T01:13:06.231Z,1
2023-03-21T01:15:06.715Z,1
2023-03-21T01:17:06.775Z,1
2023-03-21T01:19:09.218Z,1
2023-03-21T01:21:10.013Z,1
2023-03-21T01:23:09.584Z,1
2023-03-21T01:25:21.397Z,1
2023-03-21T01:27:06.137Z,1
2023-03-21T01:29:09.998Z,1
2023-03-21T01:31:06.826Z,1
2023-03-21T01:33:10.217Z,1
2023-03-21T01:35:06.085Z,1
2023-03-21T01:37:06.058Z,1
2023-03-21T01:39:09.880Z,1
2023-03-21T01:41:14.149Z,1
2023-03-21T01:43:09.628Z,1
2023-03-21T01:45:06.585Z,1
2023-03-21T01:47:12.669Z,1
2023-03-21T01:49:06.887Z,1
2023-03-21T01:51:06.493Z,1
2023-03-21T01:53:13.222Z,1
2023-03-21T01:55:13.514Z,1
2023-03-21T01:57:05.964Z,1
2023-03-21T01:59:06.559Z,1
2023-03-21T02:01:06.762Z,1
2023-03-21T02:03:14.009Z,1
2023-03-21T02:07:06.678Z,1
2023-03-21T02:09:09.261Z,1
2023-03-21T02:11:05.995Z,1
2023-03-21T02:13:09.518Z,1
2023-03-21T02:15:09.902Z,1
2023-03-21T02:17:13.273Z,1
2023-03-21T02:19:06.484Z,1
2023-03-21T02:21:10.070Z,1
2023-03-21T02:23:06.491Z,1
2023-03-21T02:25:13.310Z,1
2023-03-21T02:27:09.690Z,1
2023-03-21T02:29:06.711Z,1
2023-03-21T02:31:05.934Z,1
2023-03-21T02:33:09.697Z,1
2023-03-21T02:35:06.544Z,1
2023-03-21T02:37:10.022Z,1
2023-03-21T02:39:06.723Z,1
2023-03-21T02:41:13.130Z,1
2023-03-21T02:43:09.280Z,1
2023-03-21T02:45:06.447Z,1
2023-03-21T02:47:06.801Z,1
2023-03-21T02:49:09.164Z,1
2023-03-21T02:51:06.492Z,1
2023-03-21T02:53:10.118Z,1
2023-03-21T02:55:09.974Z,1
2023-03-21T02:57:10.250Z,1
2023-03-21T02:59:09.162Z,1
2023-03-21T03:01:10.086Z,1
2023-03-21T03:03:12.609Z,1
2023-03-21T03:05:20.314Z,1
2023-03-21T03:09:06.571Z,1
2023-03-21T03:11:10.009Z,1
2023-03-21T03:13:06.238Z,1
2023-03-21T03:15:05.999Z,1
2023-03-21T03:17:06.644Z,1
2023-03-21T03:19:06.549Z,1
2023-03-21T03:21:06.055Z,1
2023-03-21T03:25:21.148Z,1
2023-03-21T03:27:06.755Z,1
2023-03-21T03:29:06.063Z,1
2023-03-21T03:31:09.442Z,1
2023-03-21T03:33:06.214Z,1
2023-03-21T03:35:06.596Z,1
2023-03-21T03:37:10.111Z,1
2023-03-21T03:39:06.072Z,1
2023-03-21T03:41:06.062Z,1
2023-03-21T03:43:06.097Z,1
2023-03-21T03:45:06.056Z,1
2023-03-21T03:47:10.688Z,1
2023-03-21T03:49:06.077Z,1
2023-03-21T03:51:06.047Z,1
2023-03-21T03:53:12.992Z,1
2023-03-21T03:55:07.030Z,1
2023-03-21T03:57:06.293Z,1
2023-03-21T03:59:06.476Z,1
2023-03-21T04:01:09.936Z,1
2023-03-21T04:03:06.233Z,1
2023-03-21T04:05:06.838Z,1
2023-03-21T04:07:06.703Z,1
2023-03-21T04:09:17.284Z,1
2023-03-21T04:11:06.212Z,1
2023-03-21T04:13:10.213Z,1
2023-03-21T04:15:10.614Z,1
2023-03-21T04:19:13.322Z,1
2023-03-21T04:21:06.043Z,1
2023-03-21T04:23:06.406Z,1
2023-03-21T04:25:09.670Z,1
2023-03-21T04:27:06.361Z,1
2023-03-21T04:29:10.072Z,1
2023-03-21T04:33:06.332Z,1
2023-03-21T04:35:06.239Z,0
2023-03-21T04:37:06.858Z,0
2023-03-21T04:39:06.676Z,0
2023-03-21T04:41:13.182Z,0.1
2023-03-21T04:43:06.209Z,0.1
2023-03-21T04:45:09.866Z,0.2
2023-03-21T04:47:06.527Z,0.3
2023-03-21T04:49:10.003Z,0.4
2023-03-21T04:51:10.085Z,0.7
2023-03-21T04:53:06.128Z,1
2023-03-21T04:55:06.165Z,1.6
2023-03-21T04:57:10.208Z,2.3
2023-03-21T04:59:06.802Z,3.3
2023-03-21T05:01:09.231Z,5
2023-03-21T05:03:13.169Z,7
2023-03-21T05:05:06.550Z,10
2023-03-21T05:07:10.151Z,13.5
2023-03-21T05:09:06.108Z,18.2
2023-03-21T05:11:10.047Z,24.5
2023-03-21T05:13:06.356Z,31.5
2023-03-21T05:15:06.658Z,40.4
2023-03-21T05:17:06.067Z,47
2023-03-21T05:19:09.864Z,57.4
2023-03-21T05:21:06.041Z,66.7
2023-03-21T05:23:06.174Z,81.5
2023-03-21T05:27:06.295Z,109.9
2023-03-21T05:29:06.673Z,121.5
2023-03-21T05:31:06.294Z,148.4
2023-03-21T05:33:12.745Z,164
2023-03-21T05:35:06.014Z,181.3
2023-03-21T05:37:06.181Z,200.3
2023-03-21T05:39:06.919Z,221.4
2023-03-21T05:41:06.460Z,232.8
2023-03-21T05:43:06.415Z,257.2
2023-03-21T05:45:06.994Z,284.3
2023-03-21T05:47:10.076Z,314.2
2023-03-21T05:49:06.160Z,330.3
2023-03-21T05:51:06.262Z,365
2023-03-21T05:53:06.029Z,383.8
2023-03-21T05:55:10.124Z,403.4
2023-03-21T05:57:06.079Z,424.1
2023-03-21T05:59:06.805Z,445.9
2023-03-21T06:01:09.206Z,468.7
2023-03-21T06:03:10.110Z,492.7
2023-03-21T06:05:06.107Z,518
2023-03-21T06:07:06.584Z,518
2023-03-21T06:09:06.205Z,544.6
2023-03-21T06:11:06.194Z,544.6
2023-03-21T06:13:06.092Z,572.5
2023-03-21T06:15:06.703Z,572.5
2023-03-21T06:17:13.481Z,601.8
2023-03-21T06:19:09.216Z,632.7
2023-03-21T06:21:06.524Z,632.7
2023-03-21T06:23:06.174Z,665.1
2023-03-21T06:25:06.225Z,665.1
2023-03-21T06:27:10.141Z,699.2
2023-03-21T06:29:06.047Z,735.1
2023-03-21T06:31:13.313Z,735.1
2023-03-21T06:33:06.059Z,772.8
2023-03-21T06:35:06.098Z,812.4
2023-03-21T06:37:09.911Z,812.4
2023-03-21T06:39:05.974Z,854.1
2023-03-21T06:41:09.942Z,897.8
2023-03-21T06:43:06.059Z,943.9
2023-03-21T06:45:06.088Z,992.3
2023-03-21T06:47:06.695Z,1096.6
2023-03-21T06:49:06.697Z,1152.9
2023-03-21T06:51:09.979Z,1212
2023-03-21T06:53:06.032Z,1274.1
2023-03-21T06:55:06.279Z,1339.4
2023-03-21T06:57:07.370Z,1339.4
2023-03-21T06:59:06.148Z,1408.1
2023-03-21T07:01:06.955Z,1480.3
2023-03-21T07:03:09.580Z,1480.3
2023-03-21T07:05:06.039Z,1556.2
2023-03-21T07:07:06.063Z,1636
2023-03-21T07:09:06.340Z,1719.9
2023-03-21T07:11:06.782Z,1808
2023-03-21T07:13:06.269Z,1808
2023-03-21T07:15:06.928Z,1808
2023-03-21T07:17:06.684Z,1900.7
2023-03-21T07:19:06.265Z,1900.7
2023-03-21T07:21:10.079Z,1900.7
2023-03-21T07:23:09.905Z,1998.2
2023-03-21T07:25:13.022Z,1998.2
2023-03-21T07:27:06.124Z,2100.6
2023-03-21T07:31:10.049Z,2208.3
2023-03-21T07:33:09.739Z,2321.6
2023-03-21T07:35:13.191Z,2440.6
2023-03-21T07:37:06.229Z,2565.7
2023-03-21T07:39:06.839Z,2697.3
2023-03-21T07:41:09.207Z,2697.3
2023-03-21T07:43:13.469Z,2697.3
2023-03-21T07:45:09.945Z,2835.6
2023-03-21T07:47:06.048Z,2835.6
2023-03-21T07:49:06.880Z,2981
2023-03-21T07:51:06.314Z,3133.8
2023-03-21T07:53:06.080Z,3294.5
2023-03-21T07:55:13.593Z,3463.4
2023-03-21T07:57:06.289Z,3641
2023-03-21T07:59:06.066Z,3641
2023-03-21T08:01:10.043Z,3827.6
2023-03-21T08:03:06.263Z,3827.6
2023-03-21T08:05:06.465Z,4023.9
2023-03-21T08:07:06.336Z,4023.9
2023-03-21T08:09:06.045Z,4230.2
2023-03-21T08:11:06.110Z,4230.2
2023-03-21T08:15:10.130Z,4447.1
2023-03-21T08:17:06.085Z,4675.1
2023-03-21T08:19:06.052Z,4914.8
2023-03-21T08:21:09.985Z,5166.8
2023-03-21T08:23:09.978Z,5431.7
2023-03-21T08:25:06.079Z,5710.1
2023-03-21T08:27:06.069Z,6002.9
2023-03-21T08:29:13.210Z,6634.2
2023-03-21T08:31:06.217Z,6634.2
2023-03-21T08:33:06.074Z,6974.4
2023-03-21T08:35:06.643Z,7707.9
2023-03-21T08:37:06.097Z,8103.1
2023-03-21T08:39:13.315Z,8518.5
2023-03-21T08:41:06.190Z,8518.5
2023-03-21T08:43:06.533Z,8518.5
2023-03-21T08:45:06.773Z,8518.5
2023-03-21T08:47:06.296Z,8518.5
2023-03-21T08:49:13.326Z,8518.5
2023-03-21T08:51:06.011Z,8518.5
2023-03-21T08:53:06.209Z,8518.5
2023-03-21T08:55:06.101Z,8518.5
2023-03-21T08:57:06.347Z,8955.3
2023-03-21T08:59:06.700Z,8955.3
2023-03-21T09:01:06.073Z,8955.3
2023-03-21T09:03:06.690Z,9414.4
2023-03-21T09:05:06.063Z,9414.4
2023-03-21T09:07:10.274Z,9897.1
2023-03-21T09:09:10.077Z,9897.1
2023-03-21T09:11:06.055Z,9897.1
2023-03-21T09:13:06.179Z,9897.1
2023-03-21T09:15:06.079Z,9897.1
2023-03-21T09:17:06.128Z,9897.1
2023-03-21T09:19:10.118Z,9897.1
2023-03-21T09:21:06.752Z,10404.6
2023-03-21T09:23:06.069Z,10404.6
2023-03-21T09:25:06.166Z,10938
2023-03-21T09:27:13.383Z,10938
2023-03-21T09:29:06.726Z,10404.6
2023-03-21T09:31:09.228Z,10404.6
2023-03-21T09:33:06.079Z,10404.6
2023-03-21T09:35:09.659Z,10404.6
2023-03-21T09:37:06.076Z,10938
2023-03-21T09:39:06.193Z,10938
2023-03-21T09:41:10.070Z,10938
2023-03-21T09:43:06.229Z,10938
2023-03-21T09:47:10.159Z,10938
2023-03-21T09:49:06.433Z,10938
2023-03-21T09:51:09.813Z,10404.6
2023-03-21T09:53:09.837Z,10404.6
2023-03-21T09:55:06.090Z,9897.1
2023-03-21T09:57:09.216Z,9897.1
2023-03-21T09:59:10.093Z,9414.4
2023-03-21T10:01:09.981Z,9414.4
2023-03-21T10:03:06.168Z,9897.1
2023-03-21T10:05:06.076Z,10404.6
2023-03-21T10:07:06.327Z,10404.6
2023-03-21T10:11:06.277Z,10404.6
2023-03-21T10:13:06.107Z,10404.6
2023-03-21T10:15:13.120Z,10404.6
2023-03-21T10:17:06.255Z,10404.6
2023-03-21T10:19:06.017Z,10404.6
2023-03-21T10:21:10.148Z,10938
2023-03-21T10:23:05.956Z,11498.8
2023-03-21T10:25:06.397Z,12088.4
2023-03-21T10:27:06.171Z,12708.2
2023-03-21T10:29:06.007Z,13359.7
2023-03-21T10:31:09.646Z,13359.7
2023-03-21T10:33:06.126Z,13359.7
2023-03-21T10:35:06.870Z,13359.7
2023-03-21T10:37:06.182Z,13359.7
2023-03-21T10:41:12.878Z,13359.7
2023-03-21T10:43:06.067Z,14044.7
2023-03-21T10:45:10.186Z,15521.8
2023-03-21T10:47:06.808Z,17154.2
2023-03-21T10:49:06.149Z,17154.2
2023-03-21T10:51:09.704Z,18033.7
2023-03-21T10:53:06.276Z,18033.7
2023-03-21T10:55:06.332Z,18958.4
2023-03-21T10:57:06.305Z,19930.4
2023-03-21T10:59:09.598Z,19930.4
2023-03-21T11:01:13.193Z,19930.4
2023-03-21T11:03:06.112Z,19930.4
2023-03-21T11:05:06.717Z,19930.4
2023-03-21T11:07:06.087Z,20952.2
2023-03-21T11:09:10.145Z,20952.2
2023-03-21T11:11:06.191Z,22026.5
2023-03-21T11:13:06.071Z,20952.2
2023-03-21T11:15:06.074Z,19930.4
2023-03-21T11:17:10.180Z,20952.2
2023-03-21T11:19:10.148Z,20952.2
2023-03-21T11:21:06.012Z,22026.5
2023-03-21T11:23:10.072Z,22026.5
2023-03-21T11:25:06.104Z,22026.5
2023-03-21T11:27:13.502Z,23155.8
2023-03-21T11:29:06.082Z,22026.5
2023-03-21T11:31:13.404Z,22026.5
2023-03-21T11:35:09.674Z,22026.5
2023-03-21T11:37:10.150Z,23155.8
2023-03-21T11:39:06.392Z,22026.5
2023-03-21T11:41:05.984Z,23155.8
2023-03-21T11:43:06.103Z,23155.8
2023-03-21T11:45:13.394Z,22026.5
2023-03-21T11:47:06.049Z,22026.5
2023-03-21T11:49:06.189Z,22026.5
2023-03-21T11:51:06.354Z,20952.2
2023-03-21T11:53:06.059Z,20952.2
2023-03-21T11:55:07.148Z,18958.4
2023-03-21T11:57:06.316Z,19930.4
2023-03-21T11:59:06.290Z,18958.4
2023-03-21T12:01:09.953Z,18958.4
2023-03-21T12:03:06.152Z,18033.7
2023-03-21T12:05:09.847Z,18033.7
2023-03-21T12:07:06.105Z,17154.2
2023-03-21T12:09:06.140Z,17154.2
2023-03-21T12:11:06.682Z,16317.6
2023-03-21T12:13:13.285Z,15521.8
2023-03-21T12:15:13.271Z,14764.8
2023-03-21T12:17:06.265Z,15521.8
2023-03-21T12:19:13.452Z,15521.8
2023-03-21T12:21:06.266Z,15521.8
2023-03-21T12:23:13.197Z,15521.8
2023-03-21T12:25:09.792Z,16317.6
2023-03-21T12:27:10.144Z,16317.6
2023-03-21T12:29:09.969Z,17154.2
2023-03-21T12:31:06.233Z,18033.7
2023-03-21T12:33:13.175Z,18958.4
2023-03-21T12:35:05.993Z,18033.7
2023-03-21T12:37:10.016Z,17154.2
2023-03-21T12:39:06.288Z,18033.7
2023-03-21T12:41:06.098Z,17154.2
2023-03-21T12:43:12.987Z,15521.8
2023-03-21T12:47:09.740Z,14044.7
2023-03-21T12:49:06.190Z,13359.7
2023-03-21T12:51:06.749Z,13359.7
2023-03-21T12:53:06.348Z,13359.7
2023-03-21T12:55:06.100Z,13359.7
2023-03-21T12:57:07.015Z,13359.7
2023-03-21T12:59:06.120Z,13359.7
2023-03-21T13:01:06.297Z,13359.7
2023-03-21T13:03:06.858Z,13359.7
2023-03-21T13:05:06.067Z,13359.7
2023-03-21T13:11:09.674Z,14044.7
2023-03-21T13:13:06.103Z,14044.7
2023-03-21T13:15:21.767Z,14044.7
2023-03-21T13:17:06.112Z,13359.7
2023-03-21T13:19:06.157Z,12708.2
2023-03-21T13:21:06.220Z,12708.2
2023-03-21T13:23:06.978Z,12708.2
2023-03-21T13:25:06.262Z,12708.2
2023-03-21T13:27:06.129Z,12708.2
2023-03-21T13:29:13.310Z,12708.2
2023-03-21T13:31:05.977Z,12708.2
2023-03-21T13:33:06.924Z,12088.4
2023-03-21T13:35:12.788Z,12088.4
2023-03-21T13:37:06.036Z,12088.4
2023-03-21T13:39:06.378Z,12088.4
2023-03-21T13:41:06.462Z,11498.8
2023-03-21T13:43:07.195Z,11498.8
2023-03-21T13:45:10.224Z,11498.8
2023-03-21T13:47:06.512Z,11498.8
2023-03-21T13:49:06.346Z,11498.8
2023-03-21T13:53:06.362Z,11498.8
2023-03-21T13:55:06.094Z,11498.8
2023-03-21T13:57:06.150Z,10938
2023-03-21T13:59:06.257Z,10938
2023-03-21T14:01:07.087Z,10938
2023-03-21T14:03:06.423Z,10938
2023-03-21T14:05:10.264Z,11498.8
2023-03-21T14:07:10.192Z,11498.8
2023-03-21T14:09:06.352Z,11498.8
2023-03-21T14:11:06.605Z,10938
2023-03-21T14:13:06.117Z,10938
2023-03-21T14:15:14.218Z,10938
2023-03-21T14:17:06.164Z,10938
2023-03-21T14:19:06.132Z,10938
2023-03-21T14:21:09.160Z,10938
2023-03-21T14:23:06.086Z,10938
2023-03-21T14:25:10.083Z,10404.6
2023-03-21T14:27:06.918Z,10404.6
2023-03-21T14:29:23.215Z,9897.1
2023-03-21T14:31:06.273Z,9414.4
2023-03-21T14:33:06.137Z,9414.4
2023-03-21T14:35:06.862Z,9414.4
2023-03-21T14:37:13.350Z,8955.3
2023-03-21T14:39:09.602Z,8955.3
2023-03-21T14:41:06.757Z,8518.5
2023-03-21T14:43:06.098Z,8103.1
2023-03-21T14:45:06.151Z,7707.9
2023-03-21T14:47:10.172Z,7332
2023-03-21T14:49:06.145Z,6974.4
2023-03-21T14:53:06.182Z,6310.7
2023-03-21T14:55:09.716Z,6002.9
2023-03-21T14:57:06.698Z,5710.1
2023-03-21T14:59:06.277Z,5431.7
2023-03-21T15:01:06.386Z,5166.8
2023-03-21T15:03:09.727Z,4914.8
2023-03-21T15:05:13.058Z,4914.8
2023-03-21T15:07:06.267Z,4914.8
2023-03-21T15:09:06.413Z,4914.8
2023-03-21T15:11:07.664Z,4675.1
2023-03-21T15:13:06.388Z,4914.8
2023-03-21T15:15:06.392Z,4914.8
2023-03-21T15:17:06.390Z,4675.1
2023-03-21T15:19:06.148Z,4675.1
2023-03-21T15:21:09.975Z,4447.1
2023-03-21T15:23:12.973Z,4447.1
2023-03-21T15:25:06.344Z,4230.2
2023-03-21T15:27:13.341Z,4230.2
2023-03-21T15:29:09.904Z,4023.9
2023-03-21T15:31:06.112Z,4023.9
2023-03-21T15:33:06.471Z,3827.6
2023-03-21T15:35:06.247Z,3827.6
2023-03-21T15:37:10.132Z,3641
2023-03-21T15:39:06.143Z,3641
2023-03-21T15:41:06.182Z,3463.4
2023-03-21T15:43:06.908Z,3463.4
2023-03-21T15:45:06.654Z,3294.5
2023-03-21T15:47:10.183Z,3133.8
2023-03-21T15:49:06.214Z,2981
2023-03-21T15:51:13.409Z,2835.6
2023-03-21T15:53:06.072Z,2697.3
2023-03-21T15:55:06.328Z,2565.7
2023-03-21T15:57:06.341Z,2440.6
2023-03-21T15:59:06.182Z,2321.6
2023-03-21T16:01:07.012Z,2100.6
2023-03-21T16:03:06.911Z,1998.2
2023-03-21T16:05:10.405Z,1900.7
2023-03-21T16:07:06.262Z,1719.9
2023-03-21T16:09:06.580Z,1636
2023-03-21T16:11:06.253Z,1480.3
2023-03-21T16:13:06.788Z,1408.1
2023-03-21T16:15:07.051Z,1274.1
2023-03-21T16:17:12.818Z,1212
2023-03-21T16:19:06.360Z,1152.9
2023-03-21T16:21:06.142Z,1096.6
2023-03-21T16:23:06.211Z,1043.1
2023-03-21T16:25:13.606Z,992.3
2023-03-21T16:27:13.363Z,943.9
2023-03-21T16:29:06.485Z,897.8
2023-03-21T16:31:06.150Z,854.1
2023-03-21T16:33:06.315Z,812.4
2023-03-21T16:35:10.110Z,735.1
2023-03-21T16:37:06.208Z,699.2
2023-03-21T16:39:13.378Z,665.1
2023-03-21T16:43:06.587Z,632.7
2023-03-21T16:45:10.327Z,601.8
2023-03-21T16:47:06.225Z,572.5
2023-03-21T16:49:10.189Z,572.5
2023-03-21T16:51:06.379Z,518
2023-03-21T16:53:06.210Z,492.7
2023-03-21T16:55:10.475Z,468.7
2023-03-21T16:57:10.032Z,424.1
2023-03-21T16:59:06.423Z,403.4
2023-03-21T17:01:13.272Z,365
2023-03-21T17:03:06.233Z,330.3
2023-03-21T17:05:06.991Z,298.9
2023-03-21T17:07:06.126Z,257.2
2023-03-21T17:09:06.560Z,221.4
2023-03-21T17:11:10.191Z,190.6
2023-03-21T17:13:09.265Z,156
2023-03-21T17:15:13.356Z,127.7
2023-03-21T17:17:06.168Z,104.6
2023-03-21T17:19:06.112Z,81.5
2023-03-21T17:21:13.449Z,63.4
2023-03-21T17:23:06.131Z,51.9
2023-03-21T17:25:06.269Z,40.4
2023-03-21T17:27:10.132Z,31.5
2023-03-21T17:29:06.278Z,25.8
2023-03-21T17:31:13.368Z,21.1
2023-03-21T17:33:06.158Z,18.2
2023-03-21T17:37:09.981Z,12.2
2023-03-21T17:39:06.165Z,10
2023-03-21T17:41:06.111Z,7
2023-03-21T17:43:06.123Z,5.2
2023-03-21T17:45:06.201Z,3.7
2023-03-21T17:47:09.478Z,2.5
2023-03-21T17:49:06.086Z,1.7
2023-03-21T17:51:06.147Z,1.2
2023-03-21T17:53:06.392Z,1
2023-03-21T17:55:06.131Z,0.7
2023-03-21T17:57:06.924Z,0.5
2023-03-21T17:59:10.086Z,0.4
2023-03-21T18:01:06.118Z,0.3
2023-03-21T18:03:10.116Z,0.2
2023-03-21T18:05:07.123Z,0.2
2023-03-21T18:07:12.205Z,0.1
2023-03-21T18:09:06.384Z,0.1
2023-03-21T18:11:06.993Z,0
2023-03-21T18:13:06.313Z,0
2023-03-21T18:17:10.038Z,0
2023-03-21T18:19:06.179Z,0
2023-03-21T18:21:06.765Z,1
2023-03-21T18:23:06.394Z,1
2023-03-21T18:25:06.912Z,1
2023-03-21T18:27:13.421Z,1
2023-03-21T18:31:10.764Z,1
2023-03-21T18:33:10.154Z,1
2023-03-21T18:35:07.005Z,1
2023-03-21T18:37:07.513Z,1
2023-03-21T18:39:06.758Z,1
2023-03-21T18:41:06.216Z,1
2023-03-21T18:43:52.428Z,1
2023-03-21T18:45:06.873Z,1
2023-03-21T18:47:06.136Z,1
2023-03-21T18:49:48.422Z,1
2023-03-21T18:51:09.276Z,1
2023-03-21T18:53:09.315Z,1
2023-03-21T18:55:10.196Z,1
2023-03-21T18:57:36.709Z,1
2023-03-21T18:59:10.320Z,1
2023-03-21T19:01:10.235Z,1
2023-03-21T19:03:17.425Z,1
2023-03-21T19:05:07.290Z,1
2023-03-21T19:07:06.263Z,1
2023-03-21T19:09:07.824Z,1
2023-03-21T19:11:06.809Z,1
2023-03-21T19:13:06.292Z,1
2023-03-21T19:15:06.361Z,1
2023-03-21T19:17:56.356Z,1
2023-03-21T19:19:06.410Z,1
2023-03-21T19:23:06.240Z,1
2023-03-21T19:25:07.215Z,1
2023-03-21T19:27:09.298Z,1
2023-03-21T19:29:06.125Z,1
2023-03-21T19:31:10.207Z,1
2023-03-21T19:33:06.142Z,1
2023-03-21T19:35:06.146Z,1
2023-03-21T19:37:06.948Z,1
2023-03-21T19:39:06.868Z,1
2023-03-21T19:41:06.140Z,1
2023-03-21T19:43:31.501Z,1
2023-03-21T19:45:06.362Z,1
2023-03-21T19:47:06.103Z,1
2023-03-21T19:49:06.635Z,1
2023-03-21T19:51:26.655Z,1
2023-03-21T19:53:06.236Z,1
2023-03-21T19:55:06.214Z,1
2023-03-21T19:57:07.313Z,1
2023-03-21T19:59:10.308Z,1
2023-03-21T20:01:06.169Z,1
2023-03-21T20:03:06.277Z,1
2023-03-21T20:05:06.546Z,1
2023-03-21T20:07:10.270Z,1
2023-03-21T20:11:10.258Z,1
2023-03-21T20:13:06.288Z,1
2023-03-21T20:15:16.352Z,1
2023-03-21T20:17:09.596Z,1
2023-03-21T20:19:06.363Z,1
2023-03-21T20:21:06.237Z,1
2023-03-21T20:23:08.360Z,1
2023-03-21T20:25:06.907Z,1
2023-03-21T20:27:10.308Z,1
2023-03-21T20:29:28.731Z,1
2023-03-21T20:33:06.295Z,1
2023-03-21T20:35:20.125Z,1
2023-03-21T20:37:06.610Z,1
2023-03-21T20:39:10.297Z,1
2023-03-21T20:43:36.604Z,1
2023-03-21T20:45:13.345Z,1
2023-03-21T20:47:09.473Z,1
2023-03-21T20:49:10.075Z,1
2023-03-21T20:51:53.301Z,1
2023-03-21T20:53:09.618Z,1
2023-03-21T20:55:06.996Z,1
2023-03-21T20:57:10.196Z,1
2023-03-21T20:59:17.592Z,1
2023-03-21T21:01:06.151Z,1
2023-03-21T21:03:06.156Z,1
2023-03-21T21:05:24.468Z,1
2023-03-21T21:07:06.205Z,1
2023-03-21T21:09:06.455Z,1
2023-03-21T21:11:50.081Z,1
2023-03-21T21:13:06.408Z,1
2023-03-21T21:15:06.245Z,1
2023-03-21T21:17:23.099Z,1
2023-03-21T21:19:06.157Z,1
2023-03-21T21:23:06.242Z,1
2023-03-21T21:25:06.045Z,1
2023-03-21T21:27:10.326Z,1
2023-03-21T21:31:06.240Z,1
2023-03-21T21:33:09.752Z,1
2023-03-21T21:35:06.302Z,1
2023-03-21T21:37:06.077Z,1
2023-03-21T21:39:06.369Z,1
2023-03-21T21:41:06.241Z,1
2023-03-21T21:43:10.289Z,1
2023-03-21T21:45:10.234Z,1
2023-03-21T21:47:06.177Z,1
2023-03-21T21:49:06.174Z,1
2023-03-21T21:51:13.330Z,1
2023-03-21T21:53:06.271Z,1
2023-03-21T21:55:06.253Z,1
2023-03-21T21:57:06.320Z,1
2023-03-21T21:59:13.318Z,1
2023-03-21T22:01:06.194Z,1
2023-03-21T22:03:12.913Z,1
2023-03-21T22:05:06.191Z,1
2023-03-21T22:07:10.048Z,1
2023-03-21T22:09:09.950Z,1
2023-03-21T22:11:06.291Z,1
2023-03-21T22:13:09.300Z,1
2023-03-21T22:15:06.170Z,1
2023-03-21T22:17:10.063Z,1
2023-03-21T22:19:06.159Z,1
2023-03-21T22:21:06.452Z,1
2023-03-21T22:23:06.569Z,1
2023-03-21T22:25:06.333Z,1
2023-03-21T22:27:06.322Z,1
2023-03-21T22:29:10.198Z,1
2023-03-21T22:31:06.131Z,1
2023-03-21T22:33:09.453Z,1
2023-03-21T22:35:06.377Z,1
2023-03-21T22:37:10.092Z,1
2023-03-21T22:39:06.339Z,1
2023-03-21T22:41:06.663Z,1
2023-03-21T22:43:06.513Z,1
2023-03-21T22:45:09.718Z,1
2023-03-21T22:47:06.403Z,1
2023-03-21T22:49:06.070Z,1
2023-03-21T22:51:06.258Z,1
2023-03-21T22:53:06.143Z,0.7
2023-03-21T22:55:06.154Z,1
2023-03-21T22:57:06.349Z,1
2023-03-21T22:59:13.450Z,1
2023-03-21T23:01:06.207Z,1
2023-03-21T23:05:06.179Z,1
2023-03-21T23:07:06.194Z,1
2023-03-21T23:09:06.296Z,1
2023-03-21T23:11:06.306Z,1
2023-03-21T23:13:06.476Z,1
2023-03-21T23:15:06.363Z,1
2023-03-21T23:17:06.352Z,1
2023-03-21T23:19:10.177Z,1
2023-03-21T23:21:10.462Z,1
2023-03-21T23:23:10.279Z,1
2023-03-21T23:25:06.236Z,1
2023-03-21T23:27:06.309Z,1
2023-03-21T23:29:06.374Z,1
2023-03-21T23:31:10.235Z,1
2023-03-21T23:33:06.203Z,1
2023-03-21T23:35:06.407Z,1
2023-03-21T23:37:06.452Z,1
2023-03-21T23:39:13.355Z,1
2023-03-21T23:41:09.852Z,1
2023-03-21T23:43:06.739Z,1
2023-03-21T23:45:10.062Z,1
2023-03-21T23:47:06.391Z,1
2023-03-21T23:49:10.142Z,1
2023-03-21T23:51:06.205Z,1
2023-03-21T23:53:09.286Z,1
2023-03-21T23:55:06.127Z,1
2023-03-21T23:57:09.953Z,1
2023-03-21T23:59:06.503Z,1
